sensor_id;sensor_type;location;lat;lon;timestamp;pressure;altitude;pressure_sealevel;temperature;humidity
58843;BME280;44614;54.356;10.100;2023-04-28T00:01:05;101712.13;;;1.52;83.12
58843;BME280;44614;54.356;10.100;2023-04-28T00:03:30;101723.97;;;1.51;82.81
58843;BME280;44614;54.356;10.100;2023-04-28T00:05:56;101713.41;;;1.48;82.79
58843;BME280;44614;54.356;10.100;2023-04-28T00:08:21;101716.41;;;1.45;82.75
58843;BME280;44614;54.356;10.100;2023-04-28T00:10:50;101710.56;;;1.40;83.37
58843;BME280;44614;54.356;10.100;2023-04-28T00:13:15;101705.16;;;1.40;83.12
58843;BME280;44614;54.356;10.100;2023-04-28T00:15:40;101704.59;;;1.36;82.90
58843;BME280;44614;54.356;10.100;2023-04-28T00:18:05;101712.88;;;1.35;83.08
58843;BME280;44614;54.356;10.100;2023-04-28T00:20:31;101703.31;;;1.31;83.28
58843;BME280;44614;54.356;10.100;2023-04-28T00:22:56;101710.72;;;1.29;83.19
58843;BME280;44614;54.356;10.100;2023-04-28T00:25:21;101698.19;;;1.28;83.08
58843;BME280;44614;54.356;10.100;2023-04-28T00:27:47;101695.63;;;1.26;83.10
58843;BME280;44614;54.356;10.100;2023-04-28T00:30:12;101703.19;;;1.23;83.52
58843;BME280;44614;54.356;10.100;2023-04-28T00:32:37;101698.16;;;1.18;83.37
58843;BME280;44614;54.356;10.100;2023-04-28T00:35:03;101700.28;;;1.14;83.72
58843;BME280;44614;54.356;10.100;2023-04-28T00:37:29;101706.72;;;1.13;83.72
58843;BME280;44614;54.356;10.100;2023-04-28T00:39:55;101700.44;;;1.13;83.67
58843;BME280;44614;54.356;10.100;2023-04-28T00:42:20;101698.16;;;1.08;83.60
58843;BME280;44614;54.356;10.100;2023-04-28T00:44:46;101706.97;;;1.10;83.55
58843;BME280;44614;54.356;10.100;2023-04-28T00:47:11;101689.19;;;1.08;83.88
58843;BME280;44614;54.356;10.100;2023-04-28T00:49:37;101699.19;;;1.07;84.00
58843;BME280;44614;54.356;10.100;2023-04-28T00:52:05;101677.94;;;0.93;83.88
58843;BME280;44614;54.356;10.100;2023-04-28T00:54:34;101695.91;;;1.04;83.89
58843;BME280;44614;54.356;10.100;2023-04-28T00:57:01;101682.06;;;0.97;84.28
58843;BME280;44614;54.356;10.100;2023-04-28T00:59:29;101691.75;;;1.00;84.13
58843;BME280;44614;54.356;10.100;2023-04-28T01:01:55;101692.72;;;0.98;84.36
58843;BME280;44614;54.356;10.100;2023-04-28T01:04:21;101686.63;;;0.96;84.03
58843;BME280;44614;54.356;10.100;2023-04-28T01:06:48;101702.28;;;0.93;84.54
58843;BME280;44614;54.356;10.100;2023-04-28T01:09:15;101705.09;;;0.91;84.67
58843;BME280;44614;54.356;10.100;2023-04-28T01:11:40;101685.47;;;0.89;84.62
58843;BME280;44614;54.356;10.100;2023-04-28T01:14:06;101691.03;;;0.88;84.51
58843;BME280;44614;54.356;10.100;2023-04-28T01:16:32;101693.00;;;0.86;84.59
58843;BME280;44614;54.356;10.100;2023-04-28T01:18:59;101690.56;;;0.83;84.60
58843;BME280;44614;54.356;10.100;2023-04-28T01:21:26;101692.56;;;0.81;84.58
58843;BME280;44614;54.356;10.100;2023-04-28T01:23:53;101708.91;;;0.79;84.08
58843;BME280;44614;54.356;10.100;2023-04-28T01:26:18;101701.97;;;0.77;84.28
58843;BME280;44614;54.356;10.100;2023-04-28T01:28:44;101706.47;;;0.76;84.62
58843;BME280;44614;54.356;10.100;2023-04-28T01:31:10;101696.56;;;0.77;84.51
58843;BME280;44614;54.356;10.100;2023-04-28T01:33:35;101703.94;;;0.75;84.61
58843;BME280;44614;54.356;10.100;2023-04-28T01:36:01;101692.53;;;0.71;84.95
58843;BME280;44614;54.356;10.100;2023-04-28T01:38:26;101691.69;;;0.70;85.33
58843;BME280;44614;54.356;10.100;2023-04-28T01:40:53;101702.66;;;0.69;85.24
58843;BME280;44614;54.356;10.100;2023-04-28T01:43:18;101693.81;;;0.67;84.93
58843;BME280;44614;54.356;10.100;2023-04-28T01:45:44;101694.06;;;0.64;85.23
58843;BME280;44614;54.356;10.100;2023-04-28T01:48:09;101656.19;;;0.44;85.41
58843;BME280;44614;54.356;10.100;2023-04-28T01:50:35;101689.66;;;0.63;85.44
58843;BME280;44614;54.356;10.100;2023-04-28T01:53:00;101684.41;;;0.61;85.03
58843;BME280;44614;54.356;10.100;2023-04-28T01:55:26;101692.78;;;0.58;85.28
58843;BME280;44614;54.356;10.100;2023-04-28T01:57:51;101690.94;;;0.59;85.61
58843;BME280;44614;54.356;10.100;2023-04-28T02:00:16;101689.25;;;0.58;85.38
58843;BME280;44614;54.356;10.100;2023-04-28T02:02:42;101682.09;;;0.57;85.30
58843;BME280;44614;54.356;10.100;2023-04-28T02:05:07;101683.94;;;0.56;85.47
58843;BME280;44614;54.356;10.100;2023-04-28T02:07:32;101683.25;;;0.54;85.44
58843;BME280;44614;54.356;10.100;2023-04-28T02:09:58;101676.00;;;0.55;85.22
58843;BME280;44614;54.356;10.100;2023-04-28T02:12:23;101675.16;;;0.54;85.10
58843;BME280;44614;54.356;10.100;2023-04-28T02:14:48;101675.16;;;0.54;85.34
58843;BME280;44614;54.356;10.100;2023-04-28T02:17:15;101674.41;;;0.52;85.54
58843;BME280;44614;54.356;10.100;2023-04-28T02:19:40;101662.44;;;0.45;85.59
58843;BME280;44614;54.356;10.100;2023-04-28T02:22:06;101669.16;;;0.51;85.86
58843;BME280;44614;54.356;10.100;2023-04-28T02:24:34;101665.44;;;0.52;85.95
58843;BME280;44614;54.356;10.100;2023-04-28T02:26:59;101673.41;;;0.53;85.89
58843;BME280;44614;54.356;10.100;2023-04-28T02:29:25;101661.47;;;0.46;85.87
58843;BME280;44614;54.356;10.100;2023-04-28T02:31:51;101664.59;;;0.51;86.00
58843;BME280;44614;54.356;10.100;2023-04-28T02:34:17;101657.19;;;0.53;85.99
58843;BME280;44614;54.356;10.100;2023-04-28T02:36:42;101679.81;;;0.52;86.07
58843;BME280;44614;54.356;10.100;2023-04-28T02:39:08;101654.78;;;0.50;86.15
58843;BME280;44614;54.356;10.100;2023-04-28T02:41:33;101643.09;;;0.49;86.24
58843;BME280;44614;54.356;10.100;2023-04-28T02:43:58;101645.41;;;0.54;86.45
58843;BME280;44614;54.356;10.100;2023-04-28T02:46:24;101660.63;;;0.55;86.45
58843;BME280;44614;54.356;10.100;2023-04-28T02:48:49;101646.25;;;0.55;86.46
58843;BME280;44614;54.356;10.100;2023-04-28T02:51:15;101646.13;;;0.56;86.65
58843;BME280;44614;54.356;10.100;2023-04-28T02:53:40;101634.03;;;0.51;86.67
58843;BME280;44614;54.356;10.100;2023-04-28T02:56:05;101639.69;;;0.57;86.51
58843;BME280;44614;54.356;10.100;2023-04-28T02:58:31;101627.91;;;0.58;86.84
58843;BME280;44614;54.356;10.100;2023-04-28T03:00:56;101637.72;;;0.59;86.74
58843;BME280;44614;54.356;10.100;2023-04-28T03:03:21;101633.31;;;0.58;86.68
58843;BME280;44614;54.356;10.100;2023-04-28T03:05:47;101628.19;;;0.55;86.58
58843;BME280;44614;54.356;10.100;2023-04-28T03:08:12;101624.38;;;0.58;86.98
58843;BME280;44614;54.356;10.100;2023-04-28T03:10:37;101636.03;;;0.58;86.88
58843;BME280;44614;54.356;10.100;2023-04-28T03:13:03;101619.81;;;0.58;87.08
58843;BME280;44614;54.356;10.100;2023-04-28T03:15:28;101602.28;;;0.43;87.14
58843;BME280;44614;54.356;10.100;2023-04-28T03:17:53;101622.50;;;0.58;86.88
58843;BME280;44614;54.356;10.100;2023-04-28T03:20:18;101623.38;;;0.59;86.88
58843;BME280;44614;54.356;10.100;2023-04-28T03:22:44;101615.25;;;0.59;87.00
58843;BME280;44614;54.356;10.100;2023-04-28T03:25:09;101610.84;;;0.58;87.10
58843;BME280;44614;54.356;10.100;2023-04-28T03:27:35;101609.28;;;0.55;87.27
58843;BME280;44614;54.356;10.100;2023-04-28T03:30:00;101607.13;;;0.49;87.43
58843;BME280;44614;54.356;10.100;2023-04-28T03:32:25;101596.72;;;0.44;87.62
58843;BME280;44614;54.356;10.100;2023-04-28T03:34:51;101611.97;;;0.55;87.67
58843;BME280;44614;54.356;10.100;2023-04-28T03:37:16;101611.97;;;0.55;87.80
58843;BME280;44614;54.356;10.100;2023-04-28T03:39:41;101604.41;;;0.49;87.70
58843;BME280;44614;54.356;10.100;2023-04-28T03:42:07;101607.41;;;0.56;87.47
58843;BME280;44614;54.356;10.100;2023-04-28T03:44:32;101594.91;;;0.55;87.64
58843;BME280;44614;54.356;10.100;2023-04-28T03:46:57;101591.06;;;0.57;88.01
58843;BME280;44614;54.356;10.100;2023-04-28T03:49:22;101584.94;;;0.55;87.66
58843;BME280;44614;54.356;10.100;2023-04-28T03:51:48;101591.19;;;0.56;87.67
58843;BME280;44614;54.356;10.100;2023-04-28T03:54:15;101585.22;;;0.52;88.67
58843;BME280;44614;54.356;10.100;2023-04-28T03:56:40;101578.13;;;0.51;88.68
58843;BME280;44614;54.356;10.100;2023-04-28T03:59:06;101573.56;;;0.52;88.58
58843;BME280;44614;54.356;10.100;2023-04-28T04:01:31;101573.41;;;0.53;88.37
58843;BME280;44614;54.356;10.100;2023-04-28T04:03:56;101576.09;;;0.53;88.02
58843;BME280;44614;54.356;10.100;2023-04-28T04:06:22;101573.28;;;0.55;87.76
58843;BME280;44614;54.356;10.100;2023-04-28T04:08:47;101557.88;;;0.45;88.19
58843;BME280;44614;54.356;10.100;2023-04-28T04:11:13;101572.28;;;0.56;88.09
58843;BME280;44614;54.356;10.100;2023-04-28T04:13:38;101561.75;;;0.53;88.41
58843;BME280;44614;54.356;10.100;2023-04-28T04:16:04;101572.13;;;0.57;88.16
58843;BME280;44614;54.356;10.100;2023-04-28T04:18:30;101558.91;;;0.54;88.22
58843;BME280;44614;54.356;10.100;2023-04-28T04:20:56;101567.59;;;0.58;88.23
58843;BME280;44614;54.356;10.100;2023-04-28T04:23:21;101563.91;;;0.59;88.44
58843;BME280;44614;54.356;10.100;2023-04-28T04:25:47;101561.31;;;0.57;88.48
58843;BME280;44614;54.356;10.100;2023-04-28T04:28:12;101570.88;;;0.61;88.54
58843;BME280;44614;54.356;10.100;2023-04-28T04:30:38;101560.91;;;0.62;88.75
58843;BME280;44614;54.356;10.100;2023-04-28T04:33:03;101552.25;;;0.58;88.93
58843;BME280;44614;54.356;10.100;2023-04-28T04:35:29;101552.81;;;0.62;88.97
58843;BME280;44614;54.356;10.100;2023-04-28T04:37:54;101535.44;;;0.55;88.89
58843;BME280;44614;54.356;10.100;2023-04-28T04:40:19;101550.81;;;0.64;89.17
58843;BME280;44614;54.356;10.100;2023-04-28T04:42:45;101558.78;;;0.65;89.48
58843;BME280;44614;54.356;10.100;2023-04-28T04:45:10;101549.69;;;0.66;89.70
58843;BME280;44614;54.356;10.100;2023-04-28T04:47:36;101554.94;;;0.68;89.55
58843;BME280;44614;54.356;10.100;2023-04-28T04:50:01;101552.97;;;0.70;89.68
58843;BME280;44614;54.356;10.100;2023-04-28T04:52:26;101544.00;;;0.69;89.82
58843;BME280;44614;54.356;10.100;2023-04-28T04:54:52;101541.56;;;0.66;89.97
58843;BME280;44614;54.356;10.100;2023-04-28T04:57:17;101527.47;;;0.63;89.91
58843;BME280;44614;54.356;10.100;2023-04-28T04:59:43;101543.13;;;0.79;90.14
58843;BME280;44614;54.356;10.100;2023-04-28T05:02:08;101545.56;;;0.82;90.32
58843;BME280;44614;54.356;10.100;2023-04-28T05:04:33;101537.16;;;0.85;90.10
58843;BME280;44614;54.356;10.100;2023-04-28T05:06:59;101537.75;;;0.88;90.62
58843;BME280;44614;54.356;10.100;2023-04-28T05:09:24;101524.63;;;0.93;90.58
58843;BME280;44614;54.356;10.100;2023-04-28T05:11:49;101507.13;;;0.88;90.89
58843;BME280;44614;54.356;10.100;2023-04-28T05:14:15;101521.19;;;1.01;91.22
58843;BME280;44614;54.356;10.100;2023-04-28T05:16:41;101530.56;;;1.16;91.80
58843;BME280;44614;54.356;10.100;2023-04-28T05:19:06;101539.66;;;1.35;93.45
58843;BME280;44614;54.356;10.100;2023-04-28T05:21:31;101526.53;;;1.50;94.09
58843;BME280;44614;54.356;10.100;2023-04-28T05:23:57;101519.47;;;1.66;94.47
58843;BME280;44614;54.356;10.100;2023-04-28T05:26:22;101519.09;;;1.89;98.02
58843;BME280;44614;54.356;10.100;2023-04-28T05:28:48;101521.78;;;2.16;98.47
58843;BME280;44614;54.356;10.100;2023-04-28T05:31:13;101520.34;;;2.40;99.20
58843;BME280;44614;54.356;10.100;2023-04-28T05:33:39;101514.00;;;2.67;100.00
58843;BME280;44614;54.356;10.100;2023-04-28T05:36:04;101511.66;;;2.90;100.00
58843;BME280;44614;54.356;10.100;2023-04-28T05:38:30;101512.88;;;3.13;100.00
58843;BME280;44614;54.356;10.100;2023-04-28T05:40:56;101512.19;;;3.37;99.87
58843;BME280;44614;54.356;10.100;2023-04-28T05:43:21;101511.16;;;3.64;99.14
58843;BME280;44614;54.356;10.100;2023-04-28T05:45:46;101510.44;;;3.88;99.25
58843;BME280;44614;54.356;10.100;2023-04-28T05:48:12;101502.41;;;4.13;98.52
58843;BME280;44614;54.356;10.100;2023-04-28T05:50:37;101506.84;;;4.38;98.04
58843;BME280;44614;54.356;10.100;2023-04-28T05:53:02;101492.63;;;4.61;96.27
58843;BME280;44614;54.356;10.100;2023-04-28T05:55:28;101490.44;;;4.89;95.21
58843;BME280;44614;54.356;10.100;2023-04-28T05:57:54;101485.50;;;5.09;93.17
58843;BME280;44614;54.356;10.100;2023-04-28T06:00:20;101486.16;;;5.27;92.19
58843;BME280;44614;54.356;10.100;2023-04-28T06:02:46;101480.53;;;5.29;91.60
58843;BME280;44614;54.356;10.100;2023-04-28T06:05:11;101490.88;;;5.42;91.14
58843;BME280;44614;54.356;10.100;2023-04-28T06:07:36;101483.38;;;5.52;90.52
58843;BME280;44614;54.356;10.100;2023-04-28T06:10:01;101487.41;;;5.64;90.18
58843;BME280;44614;54.356;10.100;2023-04-28T06:12:27;101474.66;;;5.65;89.48
58843;BME280;44614;54.356;10.100;2023-04-28T06:14:52;101489.63;;;5.77;89.30
58843;BME280;44614;54.356;10.100;2023-04-28T06:17:19;101489.97;;;5.74;88.97
58843;BME280;44614;54.356;10.100;2023-04-28T06:19:45;101495.91;;;5.77;89.27
58843;BME280;44614;54.356;10.100;2023-04-28T06:22:11;101486.00;;;5.84;89.46
58843;BME280;44614;54.356;10.100;2023-04-28T06:24:36;101481.06;;;5.88;89.15
58843;BME280;44614;54.356;10.100;2023-04-28T06:27:02;101490.59;;;5.92;89.09
58843;BME280;44614;54.356;10.100;2023-04-28T06:29:27;101480.03;;;5.89;89.16
58843;BME280;44614;54.356;10.100;2023-04-28T06:31:52;101474.38;;;5.91;89.17
58843;BME280;44614;54.356;10.100;2023-04-28T06:34:23;101471.66;;;5.91;89.50
58843;BME280;44614;54.356;10.100;2023-04-28T06:36:51;101474.06;;;5.94;89.14
58843;BME280;44614;54.356;10.100;2023-04-28T06:39:16;101473.00;;;6.03;88.85
58843;BME280;44614;54.356;10.100;2023-04-28T06:41:41;101476.84;;;6.17;88.83
58843;BME280;44614;54.356;10.100;2023-04-28T06:44:07;101474.34;;;6.38;88.25
58843;BME280;44614;54.356;10.100;2023-04-28T06:46:32;101471.16;;;6.57;87.45
58843;BME280;44614;54.356;10.100;2023-04-28T06:48:57;101468.97;;;6.76;86.85
58843;BME280;44614;54.356;10.100;2023-04-28T06:51:23;101468.47;;;6.95;85.82
58843;BME280;44614;54.356;10.100;2023-04-28T06:53:48;101462.09;;;7.18;85.44
58843;BME280;44614;54.356;10.100;2023-04-28T06:56:17;101461.47;;;7.45;84.78
58843;BME280;44614;54.356;10.100;2023-04-28T06:58:42;101466.19;;;7.66;83.73
58843;BME280;44614;54.356;10.100;2023-04-28T07:01:07;101456.84;;;7.90;82.37
58843;BME280;44614;54.356;10.100;2023-04-28T07:03:33;101460.59;;;8.04;80.99
58843;BME280;44614;54.356;10.100;2023-04-28T07:05:58;101457.91;;;8.25;79.99
58843;BME280;44614;54.356;10.100;2023-04-28T07:08:24;101427.59;;;8.27;80.99
58843;BME280;44614;54.356;10.100;2023-04-28T07:10:49;101444.66;;;8.65;79.67
58843;BME280;44614;54.356;10.100;2023-04-28T07:13:15;101439.72;;;8.75;77.22
58843;BME280;44614;54.356;10.100;2023-04-28T07:15:40;101447.41;;;8.87;76.07
58843;BME280;44614;54.356;10.100;2023-04-28T07:18:06;101435.69;;;8.99;76.33
58843;BME280;44614;54.356;10.100;2023-04-28T07:20:31;101432.03;;;9.14;74.08
58843;BME280;44614;54.356;10.100;2023-04-28T07:22:56;101423.81;;;9.14;73.49
58843;BME280;44614;54.356;10.100;2023-04-28T07:25:22;101438.47;;;9.34;74.34
58843;BME280;44614;54.356;10.100;2023-04-28T07:27:47;101435.56;;;9.36;73.05
58843;BME280;44614;54.356;10.100;2023-04-28T07:30:12;101429.88;;;9.37;71.15
58843;BME280;44614;54.356;10.100;2023-04-28T07:32:38;101427.72;;;9.33;69.24
58843;BME280;44614;54.356;10.100;2023-04-28T07:35:03;101430.09;;;9.42;70.41
58843;BME280;44614;54.356;10.100;2023-04-28T07:37:29;101415.38;;;9.50;71.27
58843;BME280;44614;54.356;10.100;2023-04-28T07:39:55;101419.22;;;9.56;67.90
58843;BME280;44614;54.356;10.100;2023-04-28T07:42:20;101421.00;;;9.70;68.67
58843;BME280;44614;54.356;10.100;2023-04-28T07:44:45;101426.56;;;9.90;67.95
58843;BME280;44614;54.356;10.100;2023-04-28T07:47:11;101427.63;;;9.95;67.81
58843;BME280;44614;54.356;10.100;2023-04-28T07:49:36;101430.41;;;10.02;69.28
58843;BME280;44614;54.356;10.100;2023-04-28T07:52:02;101415.88;;;10.08;68.94
58843;BME280;44614;54.356;10.100;2023-04-28T07:54:27;101420.44;;;10.42;69.88
58843;BME280;44614;54.356;10.100;2023-04-28T07:56:52;101408.00;;;10.66;67.55
58843;BME280;44614;54.356;10.100;2023-04-28T07:59:18;101417.94;;;10.94;64.95
58843;BME280;44614;54.356;10.100;2023-04-28T08:01:43;101412.69;;;10.92;67.16
58843;BME280;44614;54.356;10.100;2023-04-28T08:04:08;101412.88;;;10.97;67.00
58843;BME280;44614;54.356;10.100;2023-04-28T08:06:35;101406.50;;;11.10;68.07
58843;BME280;44614;54.356;10.100;2023-04-28T08:09:00;101372.69;;;11.23;68.59
58843;BME280;44614;54.356;10.100;2023-04-28T08:11:26;101406.44;;;11.57;66.95
58843;BME280;44614;54.356;10.100;2023-04-28T08:13:52;101404.75;;;11.56;66.32
58843;BME280;44614;54.356;10.100;2023-04-28T08:16:17;101385.97;;;11.46;66.61
58843;BME280;44614;54.356;10.100;2023-04-28T08:18:43;101394.63;;;11.43;66.20
58843;BME280;44614;54.356;10.100;2023-04-28T08:21:09;101389.59;;;11.27;63.92
58843;BME280;44614;54.356;10.100;2023-04-28T08:23:35;101391.69;;;11.38;66.53
58843;BME280;44614;54.356;10.100;2023-04-28T08:26:00;101383.13;;;11.66;68.00
58843;BME280;44614;54.356;10.100;2023-04-28T08:28:26;101383.72;;;11.75;60.23
58843;BME280;44614;54.356;10.100;2023-04-28T08:30:51;101379.72;;;11.77;62.04
58843;BME280;44614;54.356;10.100;2023-04-28T08:33:17;101375.69;;;11.80;62.97
58843;BME280;44614;54.356;10.100;2023-04-28T08:35:42;101392.81;;;11.75;60.65
58843;BME280;44614;54.356;10.100;2023-04-28T08:38:08;101370.59;;;11.77;61.47
58843;BME280;44614;54.356;10.100;2023-04-28T08:40:38;101330.63;;;11.67;62.40
58843;BME280;44614;54.356;10.100;2023-04-28T08:43:03;101366.94;;;12.03;60.42
58843;BME280;44614;54.356;10.100;2023-04-28T08:45:29;101364.88;;;11.85;60.69
58843;BME280;44614;54.356;10.100;2023-04-28T08:47:57;101352.16;;;11.90;59.88
58843;BME280;44614;54.356;10.100;2023-04-28T08:50:24;101362.84;;;12.12;59.14
58843;BME280;44614;54.356;10.100;2023-04-28T08:52:51;101378.06;;;12.21;60.15
58843;BME280;44614;54.356;10.100;2023-04-28T08:55:17;101336.56;;;12.16;58.16
58843;BME280;44614;54.356;10.100;2023-04-28T08:57:44;101340.75;;;12.25;56.11
58843;BME280;44614;54.356;10.100;2023-04-28T09:00:10;101353.94;;;12.48;58.28
58843;BME280;44614;54.356;10.100;2023-04-28T09:02:36;101334.88;;;12.72;59.36
58843;BME280;44614;54.356;10.100;2023-04-28T09:05:11;101346.41;;;12.87;52.76
58843;BME280;44614;54.356;10.100;2023-04-28T09:07:38;101334.91;;;12.65;56.00
58843;BME280;44614;54.356;10.100;2023-04-28T09:10:23;101342.81;;;12.30;46.55
58843;BME280;44614;54.356;10.100;2023-04-28T09:12:53;101321.53;;;12.12;56.15
58843;BME280;44614;54.356;10.100;2023-04-28T09:15:31;101335.75;;;12.40;55.19
58843;BME280;44614;54.356;10.100;2023-04-28T09:17:57;101326.25;;;12.36;54.54
58843;BME280;44614;54.356;10.100;2023-04-28T09:20:27;101337.47;;;12.35;50.61
58843;BME280;44614;54.356;10.100;2023-04-28T09:22:54;101306.78;;;12.31;56.05
58843;BME280;44614;54.356;10.100;2023-04-28T09:25:20;101322.03;;;12.59;52.82
58843;BME280;44614;54.356;10.100;2023-04-28T09:27:47;101318.78;;;12.68;54.53
58843;BME280;44614;54.356;10.100;2023-04-28T09:30:13;101305.97;;;12.56;54.05
58843;BME280;44614;54.356;10.100;2023-04-28T09:32:39;101308.44;;;12.64;52.95
58843;BME280;44614;54.356;10.100;2023-04-28T09:35:05;101298.47;;;12.88;54.38
58843;BME280;44614;54.356;10.100;2023-04-28T09:37:31;101285.41;;;13.02;53.57
58843;BME280;44614;54.356;10.100;2023-04-28T09:40:04;101303.56;;;13.09;47.64
58843;BME280;44614;54.356;10.100;2023-04-28T09:42:37;101297.66;;;13.06;53.05
58843;BME280;44614;54.356;10.100;2023-04-28T09:45:10;101286.25;;;13.21;52.03
58843;BME280;44614;54.356;10.100;2023-04-28T09:47:38;101295.66;;;13.50;52.56
58843;BME280;44614;54.356;10.100;2023-04-28T09:50:08;101290.09;;;13.86;52.92
58843;BME280;44614;54.356;10.100;2023-04-28T09:52:36;101280.97;;;13.86;48.90
58843;BME280;44614;54.356;10.100;2023-04-28T09:55:04;101281.84;;;13.68;49.49
58843;BME280;44614;54.356;10.100;2023-04-28T09:57:31;101276.47;;;13.73;51.39
58843;BME280;44614;54.356;10.100;2023-04-28T09:59:57;101279.97;;;14.10;51.42
58843;BME280;44614;54.356;10.100;2023-04-28T10:02:23;101272.75;;;14.51;49.06
58843;BME280;44614;54.356;10.100;2023-04-28T10:04:50;101280.81;;;14.65;49.26
58843;BME280;44614;54.356;10.100;2023-04-28T10:07:18;101270.84;;;14.75;41.96
58843;BME280;44614;54.356;10.100;2023-04-28T10:09:48;101270.25;;;14.73;45.71
58843;BME280;44614;54.356;10.100;2023-04-28T10:12:22;101254.19;;;14.28;38.96
58843;BME280;44614;54.356;10.100;2023-04-28T10:14:49;101250.66;;;14.09;46.18
58843;BME280;44614;54.356;10.100;2023-04-28T10:17:17;101260.94;;;13.90;38.03
58843;BME280;44614;54.356;10.100;2023-04-28T10:19:45;101237.97;;;13.78;43.37
58843;BME280;44614;54.356;10.100;2023-04-28T10:27:32;101245.09;;;14.39;46.91
58843;BME280;44614;54.356;10.100;2023-04-28T10:32:40;101225.09;;;14.14;46.98
58843;BME280;44614;54.356;10.100;2023-04-28T10:40:38;101237.81;;;14.15;46.86
58843;BME280;44614;54.356;10.100;2023-04-28T10:43:04;101209.38;;;14.38;48.33
58843;BME280;44614;54.356;10.100;2023-04-28T10:56:24;101196.81;;;14.77;43.92
58843;BME280;44614;54.356;10.100;2023-04-28T11:16:55;101196.28;;;15.04;47.11
58843;BME280;44614;54.356;10.100;2023-04-28T11:19:31;101183.78;;;15.30;45.34
58843;BME280;44614;54.356;10.100;2023-04-28T11:21:59;101151.25;;;15.20;46.66
58843;BME280;44614;54.356;10.100;2023-04-28T11:24:27;101187.25;;;15.08;42.14
58843;BME280;44614;54.356;10.100;2023-04-28T11:26:57;101193.66;;;14.85;44.29
58843;BME280;44614;54.356;10.100;2023-04-28T11:32:02;101181.25;;;14.88;46.73
58843;BME280;44614;54.356;10.100;2023-04-28T11:34:27;101165.66;;;15.22;46.80
58843;BME280;44614;54.356;10.100;2023-04-28T11:36:53;101172.28;;;15.50;45.44
58843;BME280;44614;54.356;10.100;2023-04-28T11:39:25;101167.53;;;15.33;44.50
58843;BME280;44614;54.356;10.100;2023-04-28T11:41:55;101103.78;;;14.48;45.61
58843;BME280;44614;54.356;10.100;2023-04-28T11:44:24;101177.31;;;14.72;45.17
58843;BME280;44614;54.356;10.100;2023-04-28T11:46:51;101161.09;;;14.76;45.78
58843;BME280;44614;54.356;10.100;2023-04-28T11:49:21;101167.47;;;14.76;44.25
58843;BME280;44614;54.356;10.100;2023-04-28T11:51:49;101160.00;;;14.65;42.24
58843;BME280;44614;54.356;10.100;2023-04-28T11:54:28;101126.38;;;14.45;46.39
58843;BME280;44614;54.356;10.100;2023-04-28T11:56:54;101162.78;;;14.77;45.02
58843;BME280;44614;54.356;10.100;2023-04-28T11:59:27;101160.38;;;14.69;43.49
58843;BME280;44614;54.356;10.100;2023-04-28T12:01:58;101161.94;;;14.76;45.27
58843;BME280;44614;54.356;10.100;2023-04-28T12:07:13;101158.38;;;15.04;40.12
58843;BME280;44614;54.356;10.100;2023-04-28T12:09:40;101156.78;;;15.20;42.77
58843;BME280;44614;54.356;10.100;2023-04-28T12:12:07;101144.63;;;15.50;43.59
58843;BME280;44614;54.356;10.100;2023-04-28T12:14:56;101141.44;;;15.58;37.71
58843;BME280;44614;54.356;10.100;2023-04-28T12:17:28;101131.34;;;15.35;42.67
58843;BME280;44614;54.356;10.100;2023-04-28T12:19:54;101135.28;;;15.39;42.01
58843;BME280;44614;54.356;10.100;2023-04-28T12:22:20;101123.63;;;15.08;44.88
58843;BME280;44614;54.356;10.100;2023-04-28T12:24:45;101122.78;;;15.36;44.72
58843;BME280;44614;54.356;10.100;2023-04-28T12:27:18;101130.44;;;15.63;43.92
58843;BME280;44614;54.356;10.100;2023-04-28T12:29:49;101122.78;;;15.82;44.50
58843;BME280;44614;54.356;10.100;2023-04-28T12:32:15;101101.91;;;15.91;43.62
58843;BME280;44614;54.356;10.100;2023-04-28T12:34:43;101112.78;;;16.15;43.44
58843;BME280;44614;54.356;10.100;2023-04-28T12:37:08;101096.06;;;16.26;41.65
58843;BME280;44614;54.356;10.100;2023-04-28T12:39:35;101112.09;;;16.63;39.85
58843;BME280;44614;54.356;10.100;2023-04-28T12:42:01;101105.34;;;16.98;41.72
58843;BME280;44614;54.356;10.100;2023-04-28T12:44:27;101111.16;;;16.96;41.42
58843;BME280;44614;54.356;10.100;2023-04-28T12:46:57;101116.91;;;16.51;41.12
58843;BME280;44614;54.356;10.100;2023-04-28T12:49:22;101110.25;;;16.30;38.17
58843;BME280;44614;54.356;10.100;2023-04-28T12:51:48;101085.19;;;16.03;41.06
58843;BME280;44614;54.356;10.100;2023-04-28T12:54:13;101119.06;;;16.10;40.98
58843;BME280;44614;54.356;10.100;2023-04-28T12:56:39;101099.72;;;15.93;38.79
58843;BME280;44614;54.356;10.100;2023-04-28T12:59:04;101106.56;;;15.57;40.26
58843;BME280;44614;54.356;10.100;2023-04-28T13:01:30;101119.19;;;15.53;43.10
58843;BME280;44614;54.356;10.100;2023-04-28T13:03:55;101106.94;;;15.49;43.90
58843;BME280;44614;54.356;10.100;2023-04-28T13:06:21;101120.16;;;15.75;42.51
58843;BME280;44614;54.356;10.100;2023-04-28T13:08:46;101106.69;;;15.50;42.25
58843;BME280;44614;54.356;10.100;2023-04-28T13:11:12;101096.59;;;15.27;42.30
58843;BME280;44614;54.356;10.100;2023-04-28T13:13:37;101101.59;;;15.14;43.75
58843;BME280;44614;54.356;10.100;2023-04-28T13:16:03;101095.81;;;15.15;42.83
58843;BME280;44614;54.356;10.100;2023-04-28T13:18:29;101099.66;;;15.14;44.28
58843;BME280;44614;54.356;10.100;2023-04-28T13:20:55;101098.28;;;15.28;37.97
58843;BME280;44614;54.356;10.100;2023-04-28T13:23:20;101097.69;;;15.26;40.56
58843;BME280;44614;54.356;10.100;2023-04-28T13:25:46;101092.38;;;15.08;42.66
58843;BME280;44614;54.356;10.100;2023-04-28T13:28:11;101079.94;;;14.82;42.14